createdAt,value
2023-05-12T00:01:33.280Z,101895.00
2023-05-12T00:04:00.061Z,101897.78
2023-05-12T00:06:26.797Z,101891.66
2023-05-12T00:08:53.340Z,101893.50
2023-05-12T00:11:19.985Z,101899.69
2023-05-12T00:13:46.902Z,101894.38
2023-05-12T00:16:15.458Z,101881.06
2023-05-12T00:18:42.048Z,101888.25
2023-05-12T00:21:08.801Z,101895.34
2023-05-12T00:23:35.444Z,101886.59
2023-05-12T00:26:01.973Z,101891.00
2023-05-12T00:28:28.475Z,101882.09
2023-05-12T00:30:54.999Z,101886.59
2023-05-12T00:33:21.509Z,101886.56
2023-05-12T00:35:48.140Z,101874.13
2023-05-12T00:38:14.657Z,101872.31
2023-05-12T00:40:42.265Z,101877.69
2023-05-12T00:43:08.885Z,101873.28
2023-05-12T00:45:35.953Z,101878.69
2023-05-12T00:48:04.941Z,101881.47
2023-05-12T00:50:32.380Z,101874.38
2023-05-12T00:53:01.329Z,101873.50
2023-05-12T00:55:30.335Z,101876.22
2023-05-12T00:57:59.912Z,101873.56
2023-05-12T01:00:26.865Z,101867.34
2023-05-12T01:02:53.711Z,101870.00
2023-05-12T01:05:20.443Z,101868.22
2023-05-12T01:07:47.196Z,101861.09
2023-05-12T01:10:21.720Z,101858.44
2023-05-12T01:12:48.864Z,101851.34
2023-05-12T01:15:15.937Z,101854.03
2023-05-12T01:17:50.478Z,101846.94
2023-05-12T01:20:21.838Z,101847.94
2023-05-12T01:22:49.982Z,101850.59
2023-05-12T01:25:19.003Z,101843.50
2023-05-12T01:27:46.637Z,101847.97
2023-05-12T01:30:18.614Z,101838.13
2023-05-12T01:32:45.533Z,101847.09
2023-05-12T01:35:12.123Z,101837.31
2023-05-12T01:37:38.778Z,101840.88
2023-05-12T01:40:05.996Z,101839.94
2023-05-12T01:42:32.523Z,101839.06
2023-05-12T01:44:59.062Z,101844.38
2023-05-12T01:47:25.733Z,101839.91
2023-05-12T01:49:54.198Z,101840.81
2023-05-12T01:52:20.911Z,101843.47
2023-05-12T01:54:51.325Z,101848.81
2023-05-12T01:57:18.402Z,101849.72
2023-05-12T01:59:45.074Z,101850.59
2023-05-12T02:02:12.376Z,101843.50
2023-05-12T02:04:39.115Z,101852.47
2023-05-12T02:07:05.688Z,101848.91
2023-05-12T02:09:32.213Z,101850.66
2023-05-12T02:11:58.733Z,101843.56
2023-05-12T02:14:25.228Z,101846.25
2023-05-12T02:16:52.863Z,101842.69
2023-05-12T02:19:20.817Z,101843.56
2023-05-12T02:21:48.209Z,101846.28
2023-05-12T02:24:16.498Z,101838.31
2023-05-12T02:26:43.089Z,101843.63
2023-05-12T02:29:10.821Z,101846.34
2023-05-12T02:31:37.634Z,101837.47
2023-05-12T02:34:06.638Z,101839.25
2023-05-12T02:36:33.640Z,101829.56
2023-05-12T02:39:00.339Z,101836.69
2023-05-12T02:41:26.857Z,101834.03
2023-05-12T02:43:53.715Z,101832.25
2023-05-12T02:46:20.488Z,101833.16
2023-05-12T02:48:47.620Z,101827.81
2023-05-12T02:51:14.226Z,101833.16
2023-05-12T02:53:41.176Z,101831.44
2023-05-12T02:56:08.021Z,101829.69
2023-05-12T02:58:35.194Z,101828.91
2023-05-12T03:01:09.761Z,101825.28
2023-05-12T03:03:38.453Z,101819.91
2023-05-12T03:06:06.510Z,101824.38
2023-05-12T03:08:33.388Z,101827.03
2023-05-12T03:11:00.215Z,101826.22
2023-05-12T03:13:26.853Z,101825.34
2023-05-12T03:15:53.502Z,101830.72
2023-05-12T03:18:20.162Z,101828.06
2023-05-12T03:20:46.983Z,101815.56
2023-05-12T03:23:13.756Z,101818.22
2023-05-12T03:25:40.361Z,101820.94
2023-05-12T03:28:07.170Z,101820.06
2023-05-12T03:30:33.974Z,101814.63
2023-05-12T03:33:00.746Z,101814.69
2023-05-12T03:35:27.695Z,101814.63
2023-05-12T03:37:54.421Z,101814.63
2023-05-12T03:40:21.542Z,101803.03
2023-05-12T03:42:48.449Z,101803.94
2023-05-12T03:45:15.620Z,101798.69
2023-05-12T03:47:42.512Z,101812.03
2023-05-12T03:50:09.915Z,101816.44
2023-05-12T03:52:38.610Z,101815.50
2023-05-12T03:55:07.057Z,101812.00
2023-05-12T03:57:36.393Z,101804.81
2023-05-12T04:00:07.006Z,101803.94
2023-05-12T04:02:33.796Z,101798.53
2023-05-12T04:05:00.580Z,101798.56
2023-05-12T04:07:32.432Z,101794.97
2023-05-12T04:10:00.179Z,101797.63
2023-05-12T04:12:26.743Z,101812.72
2023-05-12T04:14:53.714Z,101806.47
2023-05-12T04:17:20.445Z,101803.78
2023-05-12T04:19:47.429Z,101804.66
2023-05-12T04:22:14.043Z,101812.63
2023-05-12T04:24:40.669Z,101811.69
2023-05-12T04:27:07.284Z,101804.56
2023-05-12T04:29:33.933Z,101808.97
2023-05-12T04:32:00.617Z,101815.16
2023-05-12T04:34:27.417Z,101817.81
2023-05-12T04:36:54.129Z,101819.59
2023-05-12T04:39:20.978Z,101818.66
2023-05-12T04:41:47.727Z,101823.09
2023-05-12T04:44:14.370Z,101818.59
2023-05-12T04:46:41.306Z,101815.03
2023-05-12T04:49:07.837Z,101828.31
2023-05-12T04:51:34.508Z,101826.50
2023-05-12T04:54:01.336Z,101830.03
2023-05-12T04:56:27.887Z,101830.88
2023-05-12T04:58:54.463Z,101838.84
2023-05-12T05:01:21.242Z,101843.25
2023-05-12T05:03:48.015Z,101843.22
2023-05-12T05:06:14.652Z,101846.72
2023-05-12T05:08:41.709Z,101845.00
2023-05-12T05:11:08.302Z,101853.81
2023-05-12T05:13:35.054Z,101856.44
2023-05-12T05:16:01.804Z,101856.41
2023-05-12T05:18:29.157Z,101867.06
2023-05-12T05:20:58.440Z,101865.19
2023-05-12T05:23:26.020Z,101869.63
2023-05-12T05:25:52.900Z,101865.09
2023-05-12T05:28:19.462Z,101871.28
2023-05-12T05:30:46.021Z,101871.19
2023-05-12T05:33:13.275Z,101870.25
2023-05-12T05:35:40.232Z,101867.56
2023-05-12T05:38:06.884Z,101869.22
2023-05-12T05:40:44.876Z,101869.16
2023-05-12T05:43:18.910Z,101866.47
2023-05-12T05:45:45.955Z,101868.22
2023-05-12T05:48:12.929Z,101872.59
2023-05-12T05:50:39.661Z,101874.28
2023-05-12T05:53:07.013Z,101876.94
2023-05-12T05:55:33.668Z,101883.13
2023-05-12T05:58:00.315Z,101879.50
2023-05-12T06:00:27.156Z,101884.81
2023-05-12T06:02:53.918Z,101889.19
2023-05-12T06:05:21.033Z,101893.59
2023-05-12T06:07:50.258Z,101891.75
2023-05-12T06:10:16.863Z,101898.78
2023-05-12T06:12:43.469Z,101898.69
2023-05-12T06:15:11.090Z,101906.59
2023-05-12T06:17:38.271Z,101906.53
2023-05-12T06:20:06.675Z,101911.84
2023-05-12T06:22:34.943Z,101908.16
2023-05-12T06:25:02.345Z,101909.88
2023-05-12T06:27:28.986Z,101915.19
2023-05-12T06:29:58.550Z,101915.16
2023-05-12T06:32:25.301Z,101914.97
2023-05-12T06:34:52.246Z,101920.19
2023-05-12T06:37:18.934Z,101915.56
2023-05-12T06:39:45.657Z,101920.81
2023-05-12T06:42:15.748Z,101920.63
2023-05-12T06:44:45.597Z,101925.00
2023-05-12T06:47:14.697Z,101924.06
2023-05-12T06:49:41.726Z,101927.56
2023-05-12T06:52:08.971Z,101939.94
2023-05-12T06:54:35.768Z,101939.03
2023-05-12T06:57:02.648Z,101939.84
2023-05-12T06:59:29.411Z,101942.50
2023-05-12T07:01:56.162Z,101949.53
2023-05-12T07:04:23.222Z,101945.78
2023-05-12T07:06:50.796Z,101938.56
2023-05-12T07:09:18.715Z,101940.19
2023-05-12T07:11:45.668Z,101949.78
2023-05-12T07:14:12.204Z,101946.06
2023-05-12T07:16:38.844Z,101945.75
2023-05-12T07:19:06.390Z,101951.69
2023-05-12T07:21:33.125Z,101949.59
2023-05-12T07:23:59.685Z,101958.25
2023-05-12T07:26:28.833Z,101957.03
2023-05-12T07:28:55.403Z,101954.94
2023-05-12T07:31:22.034Z,101954.63
2023-05-12T07:33:48.753Z,101950.72
2023-05-12T07:36:18.291Z,101958.22
2023-05-12T07:38:46.009Z,101963.16
2023-05-12T07:41:12.797Z,101954.56
2023-05-12T07:43:39.370Z,101958.22
2023-05-12T07:46:06.383Z,101953.78
2023-05-12T07:48:33.206Z,101959.03
2023-05-12T07:51:02.869Z,101956.59
2023-05-12T07:53:29.667Z,101959.41
2023-05-12T07:55:56.361Z,101959.97
2023-05-12T07:58:23.187Z,101962.25
2023-05-12T08:00:49.690Z,101960.22
2023-05-12T08:03:29.831Z,101962.63
2023-05-12T08:05:56.522Z,101965.22
2023-05-12T08:08:23.104Z,101965.78
2023-05-12T08:10:49.952Z,101965.50
2023-05-12T08:13:16.838Z,101972.00
2023-05-12T08:15:43.539Z,101966.25
2023-05-12T08:18:10.866Z,101962.06
2023-05-12T08:20:37.851Z,101964.03
2023-05-12T08:23:04.522Z,101961.88
2023-05-12T08:25:31.341Z,101960.19
2023-05-12T08:27:59.532Z,101964.91
2023-05-12T08:30:27.073Z,101969.72
2023-05-12T08:32:55.515Z,101971.41
2023-05-12T08:35:24.480Z,101971.00
2023-05-12T08:53:00.335Z,101982.66
2023-05-12T09:14:18.277Z,101989.19
2023-05-12T09:18:16.871Z,101994.13
2023-05-12T09:24:22.573Z,101995.94
2023-05-12T09:26:56.748Z,102001.38
2023-05-12T09:30:03.648Z,102004.44
2023-05-12T09:33:04.292Z,102001.28
2023-05-12T09:35:31.317Z,102006.88
2023-05-12T09:38:08.919Z,102009.00
2023-05-12T09:40:36.473Z,102012.88
2023-05-12T09:43:06.091Z,102012.97
2023-05-12T09:45:44.124Z,102016.22
2023-05-12T09:48:14.396Z,102021.28
2023-05-12T09:50:47.788Z,102016.28
2023-05-12T09:53:17.601Z,102017.16
2023-05-12T09:55:51.576Z,102023.25
2023-05-12T09:58:20.689Z,102031.88
2023-05-12T10:03:30.210Z,102015.31
2023-05-12T10:06:04.547Z,102017.78
2023-05-12T10:09:18.342Z,102021.47
2023-05-12T10:11:47.082Z,102017.56
2023-05-12T10:14:19.904Z,102019.91
2023-05-12T10:16:47.266Z,102020.16
2023-05-12T10:19:14.562Z,102017.78
2023-05-12T10:21:46.339Z,102026.69
2023-05-12T10:24:16.812Z,102020.22
2023-05-12T10:26:44.723Z,102022.59
2023-05-12T10:29:15.473Z,102012.56
2023-05-12T10:31:45.383Z,102019.81
2023-05-12T10:34:18.954Z,102024.56
2023-05-12T10:36:52.258Z,102019.72
2023-05-12T10:39:19.475Z,102025.72
2023-05-12T10:41:47.401Z,102019.25
2023-05-12T10:44:15.268Z,102012.66
2023-05-12T10:46:42.295Z,102016.28
2023-05-12T10:49:12.479Z,102020.59
2023-05-12T10:51:45.148Z,102020.59
2023-05-12T10:54:34.487Z,102018.53
2023-05-12T10:57:02.316Z,102017.09
2023-05-12T10:59:29.696Z,102015.19
2023-05-12T11:02:06.616Z,102018.09
2023-05-12T11:04:52.777Z,102008.09
2023-05-12T11:07:22.863Z,102017.97
2023-05-12T11:09:58.663Z,102011.88
2023-05-12T11:12:35.173Z,102019.50
2023-05-12T11:15:03.668Z,102019.59
2023-05-12T11:17:30.507Z,102021.44
2023-05-12T11:19:58.043Z,102017.25
2023-05-12T11:22:25.038Z,102019.31
2023-05-12T11:24:53.024Z,102020.97
2023-05-12T11:27:23.144Z,102019.06
2023-05-12T11:30:01.103Z,102026.13
2023-05-12T11:32:28.572Z,102021.72
2023-05-12T11:34:55.247Z,102026.47
2023-05-12T11:37:23.195Z,102027.91
2023-05-12T11:39:49.998Z,102031.88
2023-05-12T11:42:19.680Z,102028.78
2023-05-12T11:44:49.145Z,102032.28
2023-05-12T11:47:17.134Z,102024.03
2023-05-12T11:49:52.384Z,102023.88
2023-05-12T11:52:21.189Z,102021.56
2023-05-12T11:54:51.245Z,102032.19
2023-05-12T11:57:32.435Z,102024.56
2023-05-12T12:00:02.200Z,102031.84
2023-05-12T12:02:29.166Z,102031.38
2023-05-12T12:04:57.209Z,102034.72
2023-05-12T12:07:33.656Z,102023.50
2023-05-12T12:10:12.007Z,102034.44
2023-05-12T12:12:39.204Z,102029.78
2023-05-12T12:15:06.448Z,102028.50
2023-05-12T12:17:46.468Z,102022.31
2023-05-12T12:20:22.282Z,102022.13
2023-05-12T12:22:53.434Z,102029.94
2023-05-12T12:25:50.649Z,102031.81
2023-05-12T12:28:33.317Z,102031.34
2023-05-12T12:31:04.208Z,102030.69
2023-05-12T12:33:30.904Z,102029.13
2023-05-12T12:35:57.581Z,102039.41
2023-05-12T12:38:24.154Z,102032.88
2023-05-12T12:40:51.418Z,102042.66
2023-05-12T12:43:18.204Z,102036.38
2023-05-12T12:45:44.778Z,102037.97
2023-05-12T12:48:11.376Z,102038.94
2023-05-12T12:50:40.909Z,102037.69
2023-05-12T12:53:07.720Z,102036.25
2023-05-12T12:55:34.250Z,102034.50
2023-05-12T12:58:00.739Z,102039.22
2023-05-12T13:00:27.494Z,102034.41
2023-05-12T13:02:54.274Z,102040.22
2023-05-12T13:05:21.296Z,102036.53
2023-05-12T13:07:48.101Z,102034.88
2023-05-12T13:10:14.691Z,102040.41
2023-05-12T13:12:41.324Z,102039.63
2023-05-12T13:15:08.448Z,102030.53
2023-05-12T13:17:35.089Z,102030.34
2023-05-12T13:20:02.098Z,102038.28
2023-05-12T13:22:28.992Z,102029.28
2023-05-12T13:24:56.004Z,102040.22
2023-05-12T13:27:22.620Z,102040.03
2023-05-12T13:29:49.249Z,102034.41
2023-05-12T13:32:16.540Z,102030.06
2023-05-12T13:34:43.156Z,102032.88
2023-05-12T13:37:09.690Z,102026.56
2023-05-12T13:39:36.244Z,102024.66
2023-05-12T13:42:03.215Z,102028.09
2023-05-12T13:44:29.876Z,102024.28
2023-05-12T13:46:56.449Z,102026.13
2023-05-12T13:49:23.093Z,102024.97
2023-05-12T13:51:49.654Z,102027.19
2023-05-12T13:54:16.341Z,102027.88
2023-05-12T13:56:42.910Z,102024.28
2023-05-12T13:59:10.320Z,102031.56
2023-05-12T14:01:37.108Z,102027.09
2023-05-12T14:04:03.920Z,102028.06
2023-05-12T14:06:30.458Z,102029.63
2023-05-12T14:08:57.040Z,102018.47
2023-05-12T14:11:23.775Z,102024.94
2023-05-12T14:13:50.317Z,102027.97
2023-05-12T14:16:16.847Z,102028.69
2023-05-12T14:18:43.801Z,102027.34
2023-05-12T14:21:10.976Z,102027.34
2023-05-12T14:23:37.792Z,102014.19
2023-05-12T14:26:04.999Z,102016.09
2023-05-12T14:28:31.679Z,102023.38
2023-05-12T14:30:58.300Z,102021.78
2023-05-12T14:33:24.927Z,102022.84
2023-05-12T14:36:03.122Z,102019.97
2023-05-12T14:38:32.840Z,102021.44
2023-05-12T14:40:59.382Z,102018.25
2023-05-12T14:43:25.906Z,102020.06
2023-05-12T14:45:54.692Z,102022.47
2023-05-12T14:48:23.259Z,102021.50
2023-05-12T14:50:54.132Z,102020.38
2023-05-12T14:53:21.104Z,102015.41
2023-05-12T14:55:49.851Z,102022.44
2023-05-12T14:58:20.701Z,102017.81
2023-05-12T15:00:48.395Z,102013.25
2023-05-12T15:03:15.080Z,102013.91
2023-05-12T15:06:01.657Z,102012.94
2023-05-12T15:08:28.847Z,102017.41
2023-05-12T15:10:55.378Z,102014.91
2023-05-12T15:13:22.768Z,102017.03
2023-05-12T15:15:50.261Z,102006.97
2023-05-12T15:18:18.414Z,102020.41
2023-05-12T15:20:45.831Z,102015.88
2023-05-12T15:23:12.390Z,102011.41
2023-05-12T15:25:40.518Z,102016.84
2023-05-12T15:28:07.951Z,102013.25
2023-05-12T15:30:35.753Z,102009.34
2023-05-12T15:33:06.532Z,102014.59
2023-05-12T15:35:33.528Z,102014.31
2023-05-12T15:38:00.130Z,102015.19
2023-05-12T15:40:26.722Z,102014.03
2023-05-12T15:42:53.257Z,102039.81
2023-05-12T15:45:19.852Z,102054.03
2023-05-12T15:47:46.596Z,102065.88
2023-05-12T15:50:16.230Z,102077.16
2023-05-12T15:52:42.797Z,102089.13
2023-05-12T15:55:09.866Z,102087.47
2023-05-12T15:57:36.483Z,102071.00
2023-05-12T16:00:03.696Z,102063.53
2023-05-12T16:02:30.866Z,102055.69
2023-05-12T16:04:57.522Z,102051.47
2023-05-12T16:07:29.234Z,102049.66
2023-05-12T16:09:55.873Z,102052.47
2023-05-12T16:12:22.484Z,102052.34
2023-05-12T16:14:51.920Z,102058.53
2023-05-12T16:17:18.637Z,102057.06
2023-05-12T16:19:45.196Z,102058.09
2023-05-12T16:22:11.696Z,102062.75
2023-05-12T16:24:40.685Z,102066.41
2023-05-12T16:27:07.239Z,102055.63
2023-05-12T16:29:33.822Z,102054.75
2023-05-12T16:32:00.475Z,102051.97
2023-05-12T16:34:27.364Z,102059.13
2023-05-12T16:36:53.934Z,102064.66
2023-05-12T16:39:20.495Z,102059.38
2023-05-12T16:41:47.210Z,102045.06
2023-05-12T16:44:13.712Z,102049.69
2023-05-12T16:46:41.628Z,102059.53
2023-05-12T16:49:08.521Z,102061.34
2023-05-12T16:51:35.562Z,102060.81
2023-05-12T16:54:02.460Z,102062.00
2023-05-12T16:56:29.103Z,102064.09
2023-05-12T16:58:55.615Z,102058.94
2023-05-12T17:01:22.383Z,102059.25
2023-05-12T17:03:49.190Z,102070.34
2023-05-12T17:06:16.107Z,102071.31
2023-05-12T17:08:42.898Z,102066.84
2023-05-12T17:11:09.832Z,102069.72
2023-05-12T17:13:38.882Z,102075.19
2023-05-12T17:16:05.870Z,102071.56
2023-05-12T17:19:13.720Z,102068.78
2023-05-12T17:21:21.042Z,102069.34
2023-05-12T17:23:50.657Z,102071.97
2023-05-12T17:26:17.180Z,102071.88
2023-05-12T17:28:43.827Z,102077.22
2023-05-12T17:31:10.677Z,102073.63
2023-05-12T17:33:37.562Z,102073.53
2023-05-12T17:36:12.178Z,102078.31
2023-05-12T17:38:40.151Z,102082.69
2023-05-12T17:41:06.757Z,102077.22
2023-05-12T17:43:33.428Z,102083.56
2023-05-12T17:46:00.493Z,102087.22
2023-05-12T17:48:27.006Z,102087.22
2023-05-12T17:50:53.839Z,102091.81
2023-05-12T17:53:20.409Z,102095.38
2023-05-12T17:55:47.002Z,102084.59
2023-05-12T17:58:16.138Z,102092.75
2023-05-12T18:00:42.701Z,102092.75
2023-05-12T18:03:09.548Z,102098.16
2023-05-12T18:05:36.707Z,102094.66
2023-05-12T18:08:03.317Z,102099.97
2023-05-12T18:10:31.091Z,102102.59
2023-05-12T18:12:57.752Z,102107.13
2023-05-12T18:15:24.769Z,102107.28
2023-05-12T18:17:51.555Z,102113.69
2023-05-12T18:20:18.898Z,102114.75
2023-05-12T18:22:50.656Z,102115.81
2023-05-12T18:25:17.291Z,102117.78
2023-05-12T18:27:43.932Z,102116.28
2023-05-12T18:30:11.311Z,102117.69
2023-05-12T18:32:38.576Z,102117.09
2023-05-12T18:35:06.466Z,102127.38
2023-05-12T18:37:33.155Z,102121.50
2023-05-12T18:40:00.081Z,102127.25
2023-05-12T18:42:26.681Z,102123.94
2023-05-12T18:44:53.966Z,102127.88
2023-05-12T18:47:20.875Z,102128.28
2023-05-12T18:49:47.577Z,102133.16
2023-05-12T18:52:14.290Z,102131.69
2023-05-12T18:54:40.907Z,102137.38
2023-05-12T18:57:07.525Z,102133.28
2023-05-12T18:59:34.228Z,102139.72
2023-05-12T19:02:03.847Z,102143.72
2023-05-12T19:04:30.590Z,102149.41
2023-05-12T19:06:57.244Z,102158.66
2023-05-12T19:09:23.879Z,102161.69
2023-05-12T19:11:50.569Z,102155.59
2023-05-12T19:14:19.823Z,102160.34
2023-05-12T19:16:46.861Z,102166.91
2023-05-12T19:19:13.844Z,102164.34
2023-05-12T19:21:40.784Z,102167.25
2023-05-12T19:24:11.706Z,102174.56
2023-05-12T19:26:38.345Z,102182.03
2023-05-12T19:29:05.073Z,102179.63
2023-05-12T19:31:34.237Z,102192.31
2023-05-12T19:34:03.859Z,102189.78
2023-05-12T19:36:30.870Z,102198.13
2023-05-12T19:38:59.571Z,102196.47
2023-05-12T19:41:27.987Z,102194.88
2023-05-12T19:43:55.605Z,102200.47
2023-05-12T19:46:23.959Z,102202.59
2023-05-12T19:48:51.626Z,102206.38
2023-05-12T19:51:18.606Z,102209.31
2023-05-12T19:53:49.572Z,102212.16
2023-05-12T19:56:16.486Z,102214.28
2023-05-12T19:58:43.258Z,102221.53
2023-05-12T20:01:12.432Z,102224.34
2023-05-12T20:03:39.804Z,102221.72
2023-05-12T20:06:09.726Z,102218.19
2023-05-12T20:08:38.821Z,102225.44
2023-05-12T20:11:05.497Z,102222.06
2023-05-12T20:13:32.207Z,102230.19
2023-05-12T20:15:59.100Z,102229.38
2023-05-12T20:18:25.909Z,102228.69
2023-05-12T20:20:52.629Z,102221.59
2023-05-12T20:23:19.275Z,102235.09
2023-05-12T20:25:46.205Z,102233.44
2023-05-12T20:28:13.287Z,102235.31
2023-05-12T20:30:39.957Z,102239.03
2023-05-12T20:33:06.750Z,102241.81
2023-05-12T20:35:33.412Z,102241.00
2023-05-12T20:38:00.289Z,102241.91
2023-05-12T20:40:27.164Z,102241.19
2023-05-12T20:42:53.913Z,102247.47
2023-05-12T20:45:20.865Z,102250.22
2023-05-12T20:48:03.032Z,102253.81
2023-05-12T20:50:32.135Z,102252.91
2023-05-12T20:52:58.813Z,102258.38
2023-05-12T20:55:26.016Z,102259.28
2023-05-12T20:57:52.827Z,102254.94
2023-05-12T21:00:19.629Z,102257.66
2023-05-12T21:02:49.351Z,102264.75
2023-05-12T21:05:16.098Z,102263.91
2023-05-12T21:07:42.814Z,102268.41
2023-05-12T21:10:09.770Z,102266.69
2023-05-12T21:12:36.499Z,102268.50
2023-05-12T21:15:04.127Z,102280.22
2023-05-12T21:17:30.854Z,102279.34
2023-05-12T21:19:57.498Z,102270.50
2023-05-12T21:22:24.140Z,102276.72
2023-05-12T21:24:53.283Z,102277.72
2023-05-12T21:27:24.704Z,102282.31
2023-05-12T21:29:53.758Z,102279.66
2023-05-12T21:32:20.488Z,102286.09
2023-05-12T21:34:55.818Z,102283.50
2023-05-12T21:37:22.486Z,102284.47
2023-05-12T21:39:49.143Z,102280.94
2023-05-12T21:42:15.822Z,102287.38
2023-05-12T21:44:42.372Z,102290.09
2023-05-12T21:47:09.270Z,102290.22
2023-05-12T21:49:35.953Z,102291.16
2023-05-12T21:52:02.632Z,102291.19
2023-05-12T21:54:32.537Z,102294.84
2023-05-12T21:56:59.903Z,102293.13
2023-05-12T21:59:27.213Z,102295.91
2023-05-12T22:01:54.024Z,102303.03
2023-05-12T22:04:20.950Z,102295.06
2023-05-12T22:06:47.611Z,102297.75
2023-05-12T22:09:17.588Z,102297.75
2023-05-12T22:11:45.015Z,102303.16
2023-05-12T22:14:11.704Z,102304.94
2023-05-12T22:16:42.241Z,102300.47
2023-05-12T22:19:10.561Z,102305.94
2023-05-12T22:21:37.426Z,102297.91
2023-05-12T22:24:04.400Z,102317.59
2023-05-12T22:26:31.152Z,102314.91
2023-05-12T22:28:57.888Z,102311.34
2023-05-12T22:31:24.837Z,102311.34
2023-05-12T22:33:51.558Z,102311.44
2023-05-12T22:36:18.255Z,102312.31
2023-05-12T22:38:44.896Z,102316.78
2023-05-12T22:41:12.145Z,102319.56
2023-05-12T22:43:38.896Z,102324.09
2023-05-12T22:46:08.832Z,102315.25
2023-05-12T22:48:39.212Z,102328.69
2023-05-12T22:51:06.432Z,102324.22
2023-05-12T22:53:35.716Z,102320.66
2023-05-12T22:56:03.607Z,102326.94
2023-05-12T22:58:30.450Z,102320.66
2023-05-12T23:00:57.335Z,102320.66
2023-05-12T23:03:24.226Z,102321.59
2023-05-12T23:05:50.987Z,102317.13
2023-05-12T23:08:17.874Z,102327.03
2023-05-12T23:10:44.657Z,102322.63
2023-05-12T23:13:13.931Z,102324.34
2023-05-12T23:15:40.649Z,102326.19
2023-05-12T23:18:07.308Z,102320.06
2023-05-12T23:20:35.137Z,102331.72
2023-05-12T23:23:01.691Z,102318.34
2023-05-12T23:25:28.310Z,102320.16
2023-05-12T23:27:54.948Z,102317.53
2023-05-12T23:30:21.806Z,102321.22
2023-05-12T23:32:50.372Z,102322.16
2023-05-12T23:35:17.157Z,102320.44
2023-05-12T23:37:43.777Z,102316.03
2023-05-12T23:40:10.764Z,102319.75
2023-05-12T23:42:37.393Z,102311.75
2023-05-12T23:45:04.283Z,102317.19
2023-05-12T23:47:31.176Z,102312.81
2023-05-12T23:49:57.813Z,102309.25
2023-05-12T23:52:24.417Z,102316.50
2023-05-12T23:54:51.101Z,102315.69
2023-05-12T23:57:17.782Z,102306.84
2023-05-12T23:59:44.664Z,102311.44
